createdAt,value
2017-10-15T00:02:25.469Z,30.60
2017-10-15T00:04:53.072Z,31.73
2017-10-15T00:07:20.628Z,32.87
2017-10-15T00:09:48.226Z,32.00
2017-10-15T00:12:15.785Z,33.83
2017-10-15T00:14:43.379Z,29.43
2017-10-15T00:17:10.931Z,28.63
2017-10-15T00:19:38.560Z,33.30
2017-10-15T00:22:06.153Z,30.67
2017-10-15T00:24:35.045Z,32.30
2017-10-15T00:27:02.670Z,40.50
2017-10-15T00:29:30.245Z,32.10
2017-10-15T00:31:57.906Z,35.43
2017-10-15T00:34:26.992Z,32.50
2017-10-15T00:36:54.607Z,38.90
2017-10-15T00:39:22.170Z,32.87
2017-10-15T00:41:49.719Z,35.40
2017-10-15T00:44:18.066Z,37.53
2017-10-15T00:46:45.630Z,34.23
2017-10-15T00:49:13.270Z,45.20
2017-10-15T00:51:40.831Z,39.43
2017-10-15T00:54:08.404Z,43.53
2017-10-15T00:56:37.156Z,38.43
2017-10-15T00:59:04.714Z,41.77
2017-10-15T01:01:32.310Z,37.30
2017-10-15T01:03:59.886Z,39.17
2017-10-15T01:06:28.208Z,34.80
2017-10-15T01:08:55.799Z,34.60
2017-10-15T01:11:23.346Z,32.23
2017-10-15T01:13:50.950Z,29.13
2017-10-15T01:16:18.510Z,32.87
2017-10-15T01:18:46.062Z,32.73
2017-10-15T01:21:13.660Z,30.17
2017-10-15T01:23:41.217Z,34.87
2017-10-15T01:26:10.007Z,30.53
2017-10-15T01:28:37.624Z,33.27
2017-10-15T01:31:05.181Z,37.63
2017-10-15T01:33:32.814Z,35.87
2017-10-15T01:36:00.365Z,33.87
2017-10-15T01:38:27.984Z,81.80
2017-10-15T01:40:55.541Z,44.07
2017-10-15T01:43:23.117Z,32.90
2017-10-15T01:45:50.705Z,36.97
2017-10-15T01:48:18.262Z,36.80
2017-10-15T01:50:45.853Z,37.47
2017-10-15T01:53:13.429Z,32.37
2017-10-15T01:55:41.039Z,35.67
2017-10-15T01:58:08.597Z,27.23
2017-10-15T02:00:36.194Z,30.73
2017-10-15T02:03:03.786Z,27.20
2017-10-15T02:05:31.346Z,26.80
2017-10-15T02:07:58.951Z,26.87
2017-10-15T02:10:26.522Z,27.63
2017-10-15T02:12:54.142Z,25.93
2017-10-15T02:15:21.698Z,42.50
2017-10-15T02:17:49.257Z,26.00
2017-10-15T02:20:16.864Z,22.80
2017-10-15T02:22:44.417Z,38.60
2017-10-15T02:25:12.020Z,26.70
2017-10-15T02:27:39.593Z,27.07
2017-10-15T02:30:07.199Z,26.27
2017-10-15T02:32:34.758Z,44.53
2017-10-15T02:35:02.311Z,24.60
2017-10-15T02:37:29.910Z,23.60
2017-10-15T02:39:57.468Z,21.60
2017-10-15T02:42:25.054Z,30.47
2017-10-15T02:44:52.624Z,29.30
2017-10-15T02:47:20.270Z,24.90
2017-10-15T02:49:47.835Z,23.40
2017-10-15T02:52:15.389Z,23.30
2017-10-15T02:54:42.983Z,25.60
2017-10-15T02:57:10.547Z,22.10
2017-10-15T02:59:38.752Z,22.67
2017-10-15T03:02:06.311Z,20.13
2017-10-15T03:04:35.365Z,21.90
2017-10-15T03:07:02.964Z,27.00
2017-10-15T03:09:30.524Z,22.13
2017-10-15T03:12:00.564Z,29.60
2017-10-15T03:14:29.249Z,25.70
2017-10-15T03:16:56.818Z,23.17
2017-10-15T03:19:25.229Z,24.13
2017-10-15T03:21:52.858Z,27.77
2017-10-15T03:24:20.905Z,25.40
2017-10-15T03:26:48.857Z,27.97
2017-10-15T03:29:16.417Z,25.67
2017-10-15T03:31:44.785Z,22.17
2017-10-15T03:34:12.729Z,23.50
2017-10-15T03:36:40.401Z,24.00
2017-10-15T03:39:08.016Z,21.40
2017-10-15T03:41:35.658Z,28.30
2017-10-15T03:44:03.214Z,22.10
2017-10-15T03:46:31.168Z,20.27
2017-10-15T03:48:58.758Z,20.57
2017-10-15T03:51:26.305Z,23.87
2017-10-15T03:53:53.906Z,21.60
2017-10-15T03:56:21.467Z,21.87
2017-10-15T03:58:49.018Z,23.53
2017-10-15T04:01:17.978Z,22.40
2017-10-15T04:03:45.838Z,25.93
2017-10-15T04:06:14.809Z,22.20
2017-10-15T04:08:42.366Z,23.30
2017-10-15T04:11:11.264Z,25.57
2017-10-15T04:13:39.246Z,26.77
2017-10-15T04:16:06.812Z,29.60
2017-10-15T04:18:34.410Z,23.57
2017-10-15T04:21:03.305Z,26.90
2017-10-15T04:23:30.915Z,25.70
2017-10-15T04:25:58.472Z,23.57
2017-10-15T04:28:26.035Z,21.23
2017-10-15T04:30:53.624Z,19.80
2017-10-15T04:33:21.568Z,22.13
2017-10-15T04:35:49.190Z,22.23
2017-10-15T04:38:16.810Z,25.43
2017-10-15T04:40:44.373Z,25.10
2017-10-15T04:43:11.986Z,32.67
2017-10-15T04:45:39.554Z,33.53
2017-10-15T04:48:07.153Z,29.67
2017-10-15T04:50:34.702Z,32.33
2017-10-15T04:53:02.303Z,30.23
2017-10-15T04:55:29.861Z,29.40
2017-10-15T04:57:58.562Z,32.03
2017-10-15T05:00:26.166Z,30.40
2017-10-15T05:02:53.721Z,33.57
2017-10-15T05:05:21.354Z,29.57
2017-10-15T05:07:49.699Z,32.77
2017-10-15T05:10:17.276Z,30.37
2017-10-15T05:12:45.738Z,29.70
2017-10-15T05:15:13.302Z,34.93
2017-10-15T05:17:40.891Z,33.07
2017-10-15T05:20:08.484Z,33.50
2017-10-15T05:22:36.072Z,30.27
2017-10-15T05:25:03.631Z,29.03
2017-10-15T05:27:31.250Z,30.40
2017-10-15T05:29:58.816Z,35.13
2017-10-15T05:32:26.634Z,38.13
2017-10-15T05:34:54.234Z,32.10
2017-10-15T05:37:22.565Z,31.67
2017-10-15T05:39:50.927Z,27.30
2017-10-15T05:42:18.546Z,30.40
2017-10-15T05:44:46.146Z,34.93
2017-10-15T05:47:13.704Z,36.00
2017-10-15T05:49:41.299Z,41.10
2017-10-15T05:52:09.638Z,36.77
2017-10-15T05:54:38.039Z,36.57
2017-10-15T05:57:05.594Z,43.53
2017-10-15T05:59:33.236Z,37.00
2017-10-15T06:02:00.812Z,41.73
2017-10-15T06:04:29.405Z,32.33
2017-10-15T06:06:56.997Z,37.70
2017-10-15T06:09:24.661Z,43.50
2017-10-15T06:11:53.180Z,32.07
2017-10-15T06:14:22.117Z,33.80
2017-10-15T06:16:49.686Z,35.83
2017-10-15T06:19:17.286Z,33.57
2017-10-15T06:21:44.842Z,36.70
2017-10-15T06:24:12.458Z,51.73
2017-10-15T06:26:41.220Z,35.57
2017-10-15T06:29:08.848Z,36.93
2017-10-15T06:31:36.409Z,35.20
2017-10-15T06:34:03.972Z,37.93
2017-10-15T06:36:32.378Z,35.20
2017-10-15T06:38:59.922Z,38.27
2017-10-15T06:41:27.541Z,38.77
2017-10-15T06:43:55.222Z,50.17
2017-10-15T06:46:22.779Z,39.33
2017-10-15T06:48:50.676Z,45.63
2017-10-15T06:51:18.234Z,39.93
2017-10-15T06:53:45.786Z,41.63
2017-10-15T06:56:13.390Z,41.73
2017-10-15T06:58:40.938Z,44.30
2017-10-15T07:01:08.542Z,42.80
2017-10-15T07:03:36.919Z,35.87
2017-10-15T07:06:04.542Z,36.90
2017-10-15T07:08:32.135Z,39.63
2017-10-15T07:10:59.709Z,41.17
2017-10-15T07:13:28.053Z,43.93
2017-10-15T07:15:56.756Z,131.83
2017-10-15T07:18:24.374Z,51.83
2017-10-15T07:20:52.347Z,58.77
2017-10-15T07:23:20.718Z,54.63
2017-10-15T07:25:48.286Z,87.63
2017-10-15T07:28:15.897Z,40.23
2017-10-15T07:30:43.455Z,48.60
2017-10-15T07:33:12.147Z,41.30
2017-10-15T07:35:39.810Z,50.73
2017-10-15T07:38:07.381Z,79.70
2017-10-15T07:40:35.938Z,48.60
2017-10-15T07:43:03.511Z,52.53
2017-10-15T07:45:31.107Z,57.50
2017-10-15T07:47:59.090Z,41.20
2017-10-15T07:50:26.702Z,57.40
2017-10-15T07:52:54.286Z,55.97
2017-10-15T07:55:22.249Z,71.73
2017-10-15T07:57:49.853Z,40.50
2017-10-15T08:00:17.984Z,95.13
2017-10-15T08:02:45.605Z,89.43
2017-10-15T08:05:14.303Z,56.73
2017-10-15T08:07:41.887Z,53.20
2017-10-15T08:10:09.502Z,87.27
2017-10-15T08:12:37.063Z,74.83
2017-10-15T08:15:04.666Z,57.93
2017-10-15T08:17:32.235Z,105.27
2017-10-15T08:19:59.855Z,97.60
2017-10-15T08:22:28.226Z,110.27
2017-10-15T08:24:55.795Z,68.83
2017-10-15T08:27:24.923Z,42.00
2017-10-15T08:29:53.841Z,43.73
2017-10-15T08:32:22.772Z,42.17
2017-10-15T08:34:51.061Z,39.30
2017-10-15T08:37:18.668Z,39.30
2017-10-15T08:39:46.998Z,44.43
2017-10-15T08:42:15.962Z,44.53
2017-10-15T08:44:43.557Z,63.13
2017-10-15T08:47:11.153Z,47.53
2017-10-15T08:49:40.451Z,63.77
2017-10-15T08:52:08.450Z,45.83
2017-10-15T08:54:36.001Z,45.50
2017-10-15T08:57:04.968Z,55.40
2017-10-15T08:59:32.527Z,74.07
2017-10-15T09:02:00.085Z,41.13
2017-10-15T09:04:27.683Z,43.67
2017-10-15T09:06:55.274Z,41.40
2017-10-15T09:09:22.882Z,44.90
2017-10-15T09:11:51.797Z,40.57
2017-10-15T09:14:19.432Z,42.87
2017-10-15T09:16:47.754Z,45.27
2017-10-15T09:19:15.306Z,48.13
2017-10-15T09:21:44.608Z,46.33
2017-10-15T09:24:14.833Z,45.07
2017-10-15T09:26:42.449Z,48.83
2017-10-15T09:29:10.009Z,47.30
2017-10-15T09:31:38.013Z,46.10
2017-10-15T09:34:05.580Z,43.70
2017-10-15T09:36:33.598Z,41.60
2017-10-15T09:39:01.157Z,47.47
2017-10-15T09:41:28.759Z,42.77
2017-10-15T09:43:57.091Z,44.50
2017-10-15T09:46:25.820Z,53.73
2017-10-15T09:48:53.373Z,45.77
2017-10-15T09:51:20.978Z,47.10
2017-10-15T09:53:50.071Z,40.47
2017-10-15T09:56:17.657Z,42.73
2017-10-15T09:58:45.209Z,48.53
2017-10-15T10:01:13.589Z,45.23
2017-10-15T10:03:42.488Z,43.50
2017-10-15T10:06:10.441Z,40.27
2017-10-15T10:08:38.081Z,42.47
2017-10-15T10:11:05.646Z,43.87
2017-10-15T10:13:33.634Z,41.90
2017-10-15T10:16:01.189Z,46.20
2017-10-15T10:18:29.470Z,43.57
2017-10-15T10:20:57.042Z,42.90
2017-10-15T10:23:25.394Z,47.77
2017-10-15T10:25:52.990Z,51.17
2017-10-15T10:28:21.331Z,44.23
2017-10-15T10:30:48.960Z,45.37
2017-10-15T10:33:16.558Z,48.43
2017-10-15T10:35:44.190Z,46.90
2017-10-15T10:38:11.750Z,51.40
2017-10-15T10:40:39.309Z,47.00
2017-10-15T10:43:06.891Z,43.93
2017-10-15T10:45:36.206Z,45.77
2017-10-15T10:48:03.826Z,48.80
2017-10-15T10:50:32.169Z,46.53
2017-10-15T10:52:59.720Z,46.37
2017-10-15T10:55:27.318Z,50.07
2017-10-15T10:57:58.248Z,46.00
2017-10-15T11:00:26.288Z,46.33
2017-10-15T11:02:53.850Z,47.07
2017-10-15T11:05:22.574Z,47.70
2017-10-15T11:07:50.127Z,44.90
2017-10-15T11:10:17.713Z,44.27
2017-10-15T11:12:45.270Z,49.20
2017-10-15T11:15:12.862Z,47.13
2017-10-15T11:17:40.424Z,50.10
2017-10-15T11:20:08.042Z,49.80
2017-10-15T11:22:35.611Z,46.10
2017-10-15T11:25:03.158Z,41.43
2017-10-15T11:27:30.756Z,45.00
2017-10-15T11:29:58.320Z,41.03
2017-10-15T11:32:25.941Z,43.30
2017-10-15T11:34:53.708Z,43.00
2017-10-15T11:37:21.252Z,42.83
2017-10-15T11:39:48.831Z,42.80
2017-10-15T11:42:16.452Z,41.30
2017-10-15T11:44:45.162Z,40.10
2017-10-15T11:47:12.798Z,41.90
2017-10-15T11:49:50.419Z,33.43
2017-10-15T11:52:17.977Z,39.90
2017-10-15T11:54:45.610Z,41.00
2017-10-15T11:57:13.783Z,47.40
2017-10-15T11:59:50.374Z,41.47
2017-10-15T12:02:17.940Z,46.07
2017-10-15T12:04:45.911Z,45.37
2017-10-15T12:07:14.374Z,47.80
2017-10-15T12:09:41.934Z,41.37
2017-10-15T12:12:09.537Z,41.57
2017-10-15T12:14:37.874Z,39.17
2017-10-15T12:17:05.442Z,42.00
2017-10-15T12:19:33.379Z,37.93
2017-10-15T12:22:00.955Z,40.70
2017-10-15T12:24:31.240Z,37.63
2017-10-15T12:30:04.925Z,40.50
2017-10-15T12:32:33.416Z,37.40
2017-10-15T12:35:01.541Z,41.30
2017-10-15T12:37:30.054Z,38.40
2017-10-15T12:39:58.135Z,38.20
2017-10-15T12:42:26.632Z,37.93
2017-10-15T12:44:54.373Z,37.40
2017-10-15T12:47:22.653Z,35.53
2017-10-15T12:49:52.383Z,35.13
2017-10-15T12:52:23.378Z,36.47
2017-10-15T12:54:50.939Z,31.77
2017-10-15T13:18:35.633Z,29.10
2017-10-15T13:21:23.614Z,26.30
